createdAt,value
2018-08-22T00:00:13.904Z,3.40
2018-08-22T00:02:50.679Z,3.43
2018-08-22T00:05:28.937Z,3.00
2018-08-22T00:08:05.578Z,3.40
2018-08-22T00:10:41.905Z,3.47
2018-08-22T00:13:23.392Z,2.90
2018-08-22T00:16:00.051Z,3.10
2018-08-22T00:18:36.588Z,3.17
2018-08-22T00:21:13.282Z,2.97
2018-08-22T00:23:50.704Z,3.13
2018-08-22T00:26:27.190Z,3.50
2018-08-22T00:29:04.044Z,3.67
2018-08-22T00:31:46.467Z,3.53
2018-08-22T00:34:23.022Z,3.13
2018-08-22T00:37:04.367Z,3.00
2018-08-22T00:39:40.838Z,3.10
2018-08-22T00:42:17.965Z,3.70
2018-08-22T00:44:54.862Z,3.17
2018-08-22T00:47:32.144Z,3.10
2018-08-22T00:50:08.798Z,3.10
2018-08-22T00:52:48.992Z,3.30
2018-08-22T00:55:25.768Z,3.00
2018-08-22T00:58:02.502Z,2.97
2018-08-22T01:00:41.757Z,3.10
2018-08-22T01:03:20.545Z,3.03
2018-08-22T01:06:04.934Z,3.10
2018-08-22T01:08:42.213Z,3.53
2018-08-22T01:11:25.872Z,3.47
2018-08-22T01:14:02.722Z,3.80
2018-08-22T01:16:52.072Z,3.50
2018-08-22T01:19:28.517Z,3.30
2018-08-22T01:22:05.372Z,2.70
2018-08-22T01:24:42.817Z,3.23
2018-08-22T01:27:25.789Z,3.20
2018-08-22T01:30:03.767Z,3.53
2018-08-22T01:32:43.007Z,3.93
2018-08-22T01:35:24.601Z,3.40
2018-08-22T01:38:04.720Z,3.53
2018-08-22T01:40:41.696Z,3.20
2018-08-22T01:43:21.644Z,3.97
2018-08-22T01:46:11.791Z,3.43
2018-08-22T01:48:48.788Z,3.40
2018-08-22T01:51:38.900Z,3.50
2018-08-22T01:54:15.904Z,3.43
2018-08-22T01:57:02.572Z,3.33
2018-08-22T01:59:39.456Z,3.20
2018-08-22T02:02:20.134Z,3.53
2018-08-22T02:04:56.944Z,2.93
2018-08-22T02:07:34.229Z,3.73
2018-08-22T02:10:10.898Z,3.10
2018-08-22T02:12:47.926Z,3.57
2018-08-22T02:15:30.008Z,4.07
2018-08-22T02:18:08.096Z,3.57
2018-08-22T02:20:46.046Z,3.30
2018-08-22T02:23:25.285Z,3.70
2018-08-22T02:26:04.845Z,3.50
2018-08-22T02:28:44.136Z,3.63
2018-08-22T02:31:22.301Z,3.30
2018-08-22T02:33:58.642Z,3.50
2018-08-22T02:36:40.850Z,3.33
2018-08-22T02:39:17.067Z,3.43
2018-08-22T02:41:53.330Z,3.40
2018-08-22T02:44:37.439Z,3.77
2018-08-22T02:47:13.806Z,3.90
2018-08-22T02:49:56.280Z,3.40
2018-08-22T02:52:32.841Z,3.50
2018-08-22T02:55:10.089Z,3.50
2018-08-22T02:57:50.814Z,3.57
2018-08-22T03:00:34.700Z,3.80
2018-08-22T03:03:12.526Z,3.43
2018-08-22T03:05:59.882Z,3.23
2018-08-22T03:08:37.113Z,3.63
2018-08-22T03:11:18.399Z,3.87
2018-08-22T03:13:55.857Z,3.77
2018-08-22T03:16:33.284Z,4.17
2018-08-22T03:19:17.064Z,4.20
2018-08-22T03:21:54.973Z,3.70
2018-08-22T03:24:32.051Z,4.03
2018-08-22T03:27:15.929Z,3.93
2018-08-22T03:29:53.127Z,3.63
2018-08-22T03:32:35.070Z,3.63
2018-08-22T03:35:11.397Z,3.87
2018-08-22T03:37:54.647Z,3.70
2018-08-22T03:40:31.653Z,4.07
2018-08-22T03:43:20.761Z,3.67
2018-08-22T03:45:57.290Z,3.70
2018-08-22T03:48:34.298Z,4.07
2018-08-22T03:52:19.227Z,4.00
2018-08-22T03:54:58.598Z,3.60
2018-08-22T03:57:35.425Z,3.77
2018-08-22T04:00:15.244Z,4.10
2018-08-22T04:02:51.530Z,3.77
2018-08-22T04:05:33.627Z,3.57
2018-08-22T04:08:10.259Z,4.00
2018-08-22T04:10:47.592Z,4.13
2018-08-22T04:13:23.906Z,4.10
2018-08-22T04:16:09.821Z,4.37
2018-08-22T04:18:46.297Z,4.30
2018-08-22T04:21:26.835Z,4.07
2018-08-22T04:24:03.473Z,4.13
2018-08-22T04:26:43.059Z,4.30
2018-08-22T04:29:19.642Z,4.27
2018-08-22T04:32:01.241Z,4.47
2018-08-22T04:34:37.843Z,4.53
2018-08-22T04:37:16.650Z,4.37
2018-08-22T04:39:53.170Z,4.50
2018-08-22T04:42:30.319Z,4.70
2018-08-22T04:45:07.302Z,4.77
2018-08-22T04:47:46.643Z,4.87
2018-08-22T04:50:24.075Z,4.67
2018-08-22T04:53:17.820Z,4.63
2018-08-22T04:55:54.300Z,4.30
2018-08-22T05:01:58.432Z,4.07
2018-08-22T05:04:35.271Z,5.27
2018-08-22T05:07:11.688Z,4.80
2018-08-22T05:09:48.686Z,5.73
2018-08-22T05:12:26.712Z,6.03
2018-08-22T05:15:03.546Z,5.53
2018-08-22T05:17:41.287Z,5.43
2018-08-22T05:20:22.227Z,5.33
2018-08-22T05:22:58.873Z,6.43
2018-08-22T05:25:39.648Z,5.80
2018-08-22T05:28:29.319Z,5.43
2018-08-22T05:31:08.929Z,6.40
2018-08-22T05:33:46.312Z,5.93
2018-08-22T05:36:27.329Z,6.50
2018-08-22T05:39:07.546Z,7.07
2018-08-22T05:41:45.887Z,6.73
2018-08-22T05:44:23.714Z,7.20
2018-08-22T05:47:01.243Z,7.40
2018-08-22T05:49:39.154Z,7.63
2018-08-22T05:52:15.860Z,6.77
2018-08-22T05:54:52.872Z,7.47
2018-08-22T05:57:33.977Z,8.03
2018-08-22T06:00:11.244Z,7.83
2018-08-22T06:02:48.812Z,6.97
2018-08-22T06:05:32.355Z,7.97
2018-08-22T06:08:12.206Z,7.30
2018-08-22T06:10:48.931Z,7.20
2018-08-22T06:13:26.318Z,7.07
2018-08-22T06:16:02.924Z,6.97
2018-08-22T06:18:40.194Z,7.20
2018-08-22T06:21:18.265Z,6.40
2018-08-22T06:23:57.805Z,7.13
2018-08-22T06:26:39.624Z,7.20
2018-08-22T06:29:21.915Z,7.77
2018-08-22T06:31:59.197Z,7.73
2018-08-22T06:34:40.753Z,6.87
2018-08-22T06:37:22.670Z,7.53
2018-08-22T06:40:00.383Z,7.57
2018-08-22T06:42:37.580Z,8.00
2018-08-22T06:45:14.933Z,7.67
2018-08-22T06:47:51.508Z,7.40
2018-08-22T06:50:28.187Z,7.87
2018-08-22T06:53:05.232Z,7.67
2018-08-22T06:55:42.216Z,7.80
2018-08-22T06:58:20.708Z,8.27
2018-08-22T07:00:57.972Z,7.53
2018-08-22T07:03:34.600Z,7.80
2018-08-22T07:06:11.375Z,7.83
2018-08-22T07:09:31.215Z,7.23
2018-08-22T07:12:08.750Z,7.20
2018-08-22T07:14:44.989Z,8.00
2018-08-22T07:17:22.527Z,8.27
2018-08-22T07:19:59.374Z,7.63
2018-08-22T07:22:40.144Z,7.43
2018-08-22T07:25:20.579Z,8.10
2018-08-22T07:28:01.621Z,7.70
2018-08-22T07:30:38.652Z,7.43
2018-08-22T07:33:19.606Z,7.87
2018-08-22T07:35:56.382Z,7.10
2018-08-22T07:38:34.460Z,7.03
2018-08-22T07:41:11.551Z,7.30
2018-08-22T07:43:53.755Z,6.97
2018-08-22T07:46:31.736Z,6.23
2018-08-22T07:49:10.667Z,7.03
2018-08-22T07:51:53.840Z,6.40
2018-08-22T07:54:37.726Z,6.10
2018-08-22T07:57:18.724Z,6.50
2018-08-22T07:59:55.758Z,6.07
2018-08-22T08:02:33.404Z,6.47
2018-08-22T08:05:11.117Z,5.90
2018-08-22T08:07:48.990Z,5.73
2018-08-22T08:10:34.723Z,5.87
2018-08-22T08:13:16.899Z,5.87
2018-08-22T08:15:56.827Z,5.80
2018-08-22T08:18:33.453Z,5.43
2018-08-22T08:21:11.930Z,5.53
2018-08-22T08:23:48.930Z,5.40
2018-08-22T08:26:26.639Z,5.90
2018-08-22T08:29:03.672Z,5.57
2018-08-22T08:31:40.515Z,5.67
2018-08-22T08:34:17.936Z,5.40
2018-08-22T08:36:55.197Z,5.20
2018-08-22T08:39:32.579Z,5.10
2018-08-22T08:42:10.120Z,4.80
2018-08-22T08:44:46.786Z,4.47
2018-08-22T08:47:30.323Z,5.10
2018-08-22T08:50:07.729Z,5.40
2018-08-22T08:52:45.361Z,4.80
2018-08-22T08:55:23.034Z,4.57
2018-08-22T08:58:01.282Z,4.90
2018-08-22T09:00:38.688Z,4.63
2018-08-22T09:03:16.168Z,4.43
2018-08-22T09:05:53.063Z,4.30
2018-08-22T09:08:30.369Z,4.60
2018-08-22T09:11:06.701Z,4.77
2018-08-22T09:13:58.747Z,4.73
2018-08-22T09:16:38.315Z,4.07
2018-08-22T09:19:28.069Z,4.17
2018-08-22T09:22:05.912Z,4.43
2018-08-22T09:24:43.264Z,4.60
2018-08-22T09:27:20.231Z,3.97
2018-08-22T09:30:01.865Z,3.87
2018-08-22T09:32:42.064Z,4.27
2018-08-22T09:35:21.582Z,4.20
2018-08-22T09:37:59.223Z,5.13
2018-08-22T09:41:23.606Z,4.50
2018-08-22T09:44:01.309Z,4.77
2018-08-22T09:46:41.743Z,3.83
2018-08-22T09:49:26.028Z,4.23
2018-08-22T09:52:03.125Z,3.80
2018-08-22T09:54:54.465Z,4.33
2018-08-22T09:57:31.727Z,4.47
2018-08-22T10:00:13.807Z,4.33
2018-08-22T10:02:50.934Z,4.10
2018-08-22T10:05:28.078Z,4.40
2018-08-22T10:08:07.629Z,4.40
2018-08-22T10:11:00.263Z,3.90
2018-08-22T10:13:37.293Z,3.90
2018-08-22T10:16:14.534Z,3.97
2018-08-22T10:18:53.984Z,3.90
2018-08-22T10:21:30.976Z,4.30
2018-08-22T10:24:11.565Z,4.00
2018-08-22T10:26:48.566Z,4.00
2018-08-22T10:29:32.816Z,4.47
2018-08-22T10:32:12.827Z,4.23
2018-08-22T10:34:51.257Z,4.07
2018-08-22T10:37:30.659Z,3.47
2018-08-22T10:40:12.646Z,3.73
2018-08-22T10:42:49.646Z,4.43
2018-08-22T10:45:27.847Z,3.43
2018-08-22T10:48:05.673Z,3.53
2018-08-22T10:50:48.126Z,3.77
2018-08-22T10:53:30.185Z,3.80
2018-08-22T10:56:09.879Z,4.30
2018-08-22T10:58:46.920Z,3.50
2018-08-22T11:04:24.482Z,4.20
2018-08-22T11:07:10.961Z,3.90
2018-08-22T11:09:48.959Z,3.80
2018-08-22T11:12:27.325Z,3.87
2018-08-22T11:15:06.437Z,3.50
2018-08-22T11:17:51.272Z,3.70
2018-08-22T11:20:36.543Z,3.60
2018-08-22T11:23:25.615Z,3.67
2018-08-22T11:26:17.855Z,3.60
2018-08-22T11:29:05.739Z,3.73
2018-08-22T11:31:52.989Z,3.33
2018-08-22T11:37:34.843Z,4.30
2018-08-22T11:40:23.837Z,3.50
2018-08-22T11:43:01.114Z,3.80
2018-08-22T11:45:53.367Z,4.10
2018-08-22T11:48:36.599Z,3.67
2018-08-22T11:51:14.920Z,3.50
2018-08-22T11:53:53.517Z,3.47
2018-08-22T11:56:33.874Z,3.67
2018-08-22T11:59:12.660Z,3.83
2018-08-22T12:04:36.237Z,3.90
2018-08-22T12:07:15.210Z,4.37
2018-08-22T12:10:02.142Z,4.20
2018-08-22T12:12:40.962Z,4.03
2018-08-22T12:15:18.598Z,3.80
2018-08-22T12:17:58.103Z,4.07
2018-08-22T12:20:38.401Z,3.80
2018-08-22T12:23:20.643Z,4.17
2018-08-22T12:25:57.517Z,3.80
2018-08-22T12:28:46.122Z,3.80
2018-08-22T12:31:25.032Z,3.50
2018-08-22T12:34:04.975Z,4.27
2018-08-22T12:36:44.330Z,3.63
2018-08-22T12:39:31.454Z,3.50
2018-08-22T12:42:09.229Z,3.80
2018-08-22T12:44:53.527Z,3.40
2018-08-22T12:47:30.372Z,3.80
2018-08-22T12:50:08.093Z,4.50
2018-08-22T12:52:44.872Z,3.70
2018-08-22T12:55:22.236Z,3.90
2018-08-22T12:57:58.930Z,3.77
2018-08-22T13:00:48.112Z,4.03
2018-08-22T13:03:25.072Z,4.03
2018-08-22T13:06:08.227Z,3.80
2018-08-22T13:08:53.926Z,4.00
2018-08-22T13:11:31.280Z,3.87
2018-08-22T13:14:10.564Z,3.70
2018-08-22T13:16:50.308Z,3.57
2018-08-22T13:19:29.822Z,3.87
2018-08-22T13:22:11.721Z,3.70
2018-08-22T13:24:49.536Z,4.33
2018-08-22T13:27:28.328Z,3.70
2018-08-22T13:30:05.619Z,3.87
2018-08-22T13:32:50.178Z,3.80
2018-08-22T13:35:28.483Z,3.93
2018-08-22T13:38:09.879Z,3.90
2018-08-22T13:40:48.648Z,4.37
2018-08-22T13:43:29.405Z,4.10
2018-08-22T13:46:07.829Z,3.97
2018-08-22T13:48:45.337Z,4.37
2018-08-22T13:51:22.048Z,4.83
2018-08-22T13:53:59.215Z,4.30
2018-08-22T13:56:35.856Z,4.23
2018-08-22T13:59:13.859Z,3.70
2018-08-22T14:01:51.307Z,4.00
2018-08-22T14:04:34.153Z,3.80
2018-08-22T14:07:15.641Z,4.20
2018-08-22T14:09:54.625Z,4.10
2018-08-22T14:12:31.641Z,4.40
2018-08-22T14:15:10.922Z,5.20
2018-08-22T14:17:48.159Z,4.53
2018-08-22T14:20:30.571Z,4.10
2018-08-22T14:23:08.449Z,4.37
2018-08-22T14:25:53.912Z,4.17
2018-08-22T14:28:31.039Z,4.03
2018-08-22T14:31:10.973Z,4.20
2018-08-22T14:33:47.889Z,3.87
2018-08-22T14:36:27.517Z,4.40
2018-08-22T14:39:04.295Z,4.63
2018-08-22T14:41:42.965Z,3.93
2018-08-22T14:44:19.629Z,3.93
2018-08-22T14:47:01.547Z,3.90
2018-08-22T14:49:42.244Z,4.40
2018-08-22T14:52:19.275Z,4.07
2018-08-22T14:54:56.285Z,4.20
2018-08-22T14:57:34.761Z,4.00
2018-08-22T15:00:12.337Z,4.53
2018-08-22T15:02:53.183Z,3.93
2018-08-22T15:05:29.813Z,4.43
2018-08-22T15:08:10.299Z,4.40
2018-08-22T15:10:49.781Z,3.90
2018-08-22T15:13:37.478Z,4.00
2018-08-22T15:16:20.038Z,4.10
2018-08-22T15:18:58.514Z,4.00
2018-08-22T15:21:35.545Z,3.90
2018-08-22T15:24:15.478Z,4.27
2018-08-22T15:26:54.303Z,4.17
2018-08-22T15:29:33.200Z,4.10
2018-08-22T15:32:11.835Z,4.20
2018-08-22T15:34:59.743Z,3.97
2018-08-22T15:37:37.752Z,4.10
2018-08-22T15:40:14.921Z,4.33
2018-08-22T15:42:51.509Z,4.23
2018-08-22T15:45:29.690Z,3.93
2018-08-22T15:48:06.499Z,4.30
2018-08-22T15:50:45.323Z,3.83
2018-08-22T15:53:22.569Z,4.10
2018-08-22T15:55:59.754Z,4.20
2018-08-22T15:58:37.017Z,4.37
2018-08-22T16:01:15.004Z,4.13
2018-08-22T16:03:51.972Z,3.80
2018-08-22T16:06:29.758Z,4.03
2018-08-22T16:09:16.630Z,4.00
2018-08-22T16:11:55.584Z,3.80
2018-08-22T16:14:33.622Z,3.93
2018-08-22T16:17:11.769Z,3.70
2018-08-22T16:19:48.785Z,4.17
2018-08-22T16:22:30.197Z,3.73
2018-08-22T16:25:07.312Z,4.20
2018-08-22T16:27:48.793Z,3.70
2018-08-22T16:30:25.991Z,3.93
2018-08-22T16:33:03.221Z,4.03
2018-08-22T16:35:40.125Z,3.60
2018-08-22T16:38:17.725Z,3.40
2018-08-22T16:40:55.834Z,4.13
2018-08-22T16:43:40.727Z,3.80
2018-08-22T16:46:17.864Z,3.80
2018-08-22T18:24:05.346Z,4.57
2018-08-22T18:29:52.988Z,5.60
2018-08-22T18:32:56.375Z,5.87
2018-08-22T18:35:34.784Z,5.50
2018-08-22T18:38:14.476Z,5.30
2018-08-22T18:41:03.349Z,4.87
2018-08-22T18:43:45.261Z,4.37
2018-08-22T18:46:26.067Z,3.97
2018-08-22T18:49:05.363Z,4.23
2018-08-22T18:51:47.756Z,4.83
2018-08-22T18:54:25.171Z,5.10
2018-08-22T18:57:04.634Z,5.00
2018-08-22T18:59:46.942Z,5.03
2018-08-22T19:02:26.660Z,4.33
2018-08-22T19:05:20.372Z,4.50
2018-08-22T19:08:01.668Z,4.43
2018-08-22T19:10:40.227Z,4.87
2018-08-22T19:13:24.089Z,5.17
2018-08-22T19:16:02.847Z,4.60
2018-08-22T19:18:42.409Z,4.80
2018-08-22T19:21:25.516Z,5.00
2018-08-22T19:24:06.685Z,4.47
2018-08-22T19:26:44.436Z,3.43
2018-08-22T19:29:23.549Z,4.50
2018-08-22T19:32:00.463Z,4.17
2018-08-22T19:34:43.438Z,4.30
2018-08-22T19:37:20.315Z,5.40
2018-08-22T19:40:04.155Z,4.57
2018-08-22T19:42:42.106Z,5.00
2018-08-22T19:45:28.126Z,4.50
2018-08-22T19:48:05.795Z,4.33
2018-08-22T19:50:43.977Z,4.67
2018-08-22T19:53:20.591Z,4.60
2018-08-22T19:55:57.772Z,4.70
2018-08-22T19:58:36.276Z,4.37
2018-08-22T20:01:15.273Z,4.20
2018-08-22T20:03:57.158Z,4.57
2018-08-22T20:06:34.428Z,4.80
2018-08-22T20:09:12.414Z,4.57
2018-08-22T20:12:05.857Z,4.07
2018-08-22T20:14:50.692Z,4.67
2018-08-22T20:17:32.733Z,4.90
2018-08-22T20:20:12.095Z,4.17
2018-08-22T20:22:52.036Z,4.20
2018-08-22T20:25:28.894Z,4.90
2018-08-22T20:28:06.065Z,4.43
2018-08-22T20:30:43.349Z,4.20
2018-08-22T20:33:20.787Z,5.33
2018-08-22T20:35:59.263Z,4.93
2018-08-22T20:38:41.382Z,4.43
2018-08-22T20:41:20.502Z,4.80
2018-08-22T20:43:59.331Z,5.00
2018-08-22T20:46:35.787Z,4.83
2018-08-22T20:49:12.787Z,4.50
2018-08-22T20:51:49.565Z,5.00
2018-08-22T20:54:26.635Z,4.60
2018-08-22T20:57:04.194Z,5.17
2018-08-22T20:59:41.940Z,4.90
2018-08-22T21:02:21.809Z,4.77
2018-08-22T21:04:59.799Z,4.70
2018-08-22T21:07:40.805Z,4.73
2018-08-22T21:10:19.359Z,4.40
2018-08-22T21:12:56.504Z,5.03
2018-08-22T21:15:34.357Z,4.90
2018-08-22T21:18:11.875Z,5.10
2018-08-22T21:20:49.653Z,5.03
2018-08-22T21:23:27.089Z,5.10
2018-08-22T21:26:07.455Z,5.47
2018-08-22T21:28:44.369Z,5.07
2018-08-22T21:31:31.272Z,5.20
2018-08-22T21:34:25.358Z,5.30
2018-08-22T21:37:04.204Z,5.03
2018-08-22T21:39:43.480Z,4.93
2018-08-22T21:42:32.850Z,5.67
2018-08-22T21:45:10.413Z,4.63
2018-08-22T21:48:06.631Z,5.30
2018-08-22T21:50:44.200Z,5.20
2018-08-22T21:53:22.805Z,5.20
2018-08-22T21:56:03.522Z,5.20
2018-08-22T21:58:49.607Z,5.17
2018-08-22T22:01:30.643Z,5.10
2018-08-22T22:04:14.977Z,5.00
2018-08-22T22:06:52.728Z,5.40
2018-08-22T22:09:32.105Z,4.90
2018-08-22T22:12:13.734Z,5.13
2018-08-22T22:14:52.752Z,5.50
2018-08-22T22:17:30.720Z,4.60
2018-08-22T22:20:09.304Z,5.40
2018-08-22T22:22:46.243Z,5.23
2018-08-22T22:25:28.960Z,5.27
2018-08-22T22:28:06.476Z,4.93
2018-08-22T22:30:44.468Z,5.53
2018-08-22T22:33:22.371Z,6.03
2018-08-22T22:36:00.440Z,6.77
2018-08-22T22:38:37.384Z,6.73
2018-08-22T22:41:15.654Z,6.17
2018-08-22T22:43:56.663Z,5.97
2018-08-22T22:46:38.135Z,6.13
2018-08-22T22:49:21.172Z,5.90
2018-08-22T22:52:42.288Z,6.70
2018-08-22T22:55:20.688Z,5.87
2018-08-22T22:58:03.923Z,5.63
2018-08-22T23:00:40.365Z,5.13
2018-08-22T23:03:21.327Z,4.90
2018-08-22T23:05:59.439Z,4.40
2018-08-22T23:08:42.054Z,4.87
2018-08-22T23:11:19.352Z,4.63
2018-08-22T23:13:56.964Z,5.10
2018-08-22T23:16:37.264Z,4.43
2018-08-22T23:19:21.290Z,5.13
2018-08-22T23:21:58.320Z,5.13
2018-08-22T23:24:47.260Z,4.70
2018-08-22T23:27:25.406Z,5.03
2018-08-22T23:30:03.317Z,5.00
2018-08-22T23:32:43.355Z,4.83
2018-08-22T23:35:29.495Z,5.47
2018-08-22T23:38:09.527Z,6.17
2018-08-22T23:40:54.387Z,5.60
2018-08-22T23:43:41.651Z,6.07
2018-08-22T23:46:22.472Z,5.37
2018-08-22T23:52:33.710Z,5.60
2018-08-22T23:55:10.494Z,5.63
2018-08-22T23:58:02.022Z,5.87
